createdAt,value
2022-11-23T00:01:19.086Z,16.97
2022-11-23T00:03:47.455Z,15.77
2022-11-23T00:06:14.565Z,17.27
2022-11-23T00:08:41.506Z,17.00
2022-11-23T00:11:08.563Z,16.63
2022-11-23T00:13:35.427Z,16.83
2022-11-23T00:16:06.075Z,17.50
2022-11-23T00:18:32.694Z,16.77
2022-11-23T00:20:59.267Z,16.93
2022-11-23T00:23:25.971Z,17.13
2022-11-23T00:25:52.609Z,17.00
2022-11-23T00:28:19.188Z,16.63
2022-11-23T00:30:50.175Z,17.23
2022-11-23T00:33:17.963Z,17.63
2022-11-23T00:35:45.054Z,16.43
2022-11-23T00:38:12.138Z,16.13
2022-11-23T00:40:38.911Z,16.47
2022-11-23T00:43:05.622Z,17.57
2022-11-23T00:45:32.923Z,16.90
2022-11-23T00:47:59.544Z,16.57
2022-11-23T00:50:26.159Z,15.80
2022-11-23T00:52:52.779Z,16.10
2022-11-23T00:55:19.687Z,17.10
2022-11-23T00:57:46.252Z,16.90
2022-11-23T01:00:13.191Z,17.50
2022-11-23T01:02:40.382Z,16.20
2022-11-23T01:05:07.210Z,16.10
2022-11-23T01:07:33.914Z,16.37
2022-11-23T01:10:00.584Z,16.20
2022-11-23T01:12:29.066Z,16.03
2022-11-23T01:14:55.747Z,16.20
2022-11-23T01:17:22.442Z,16.07
2022-11-23T01:19:49.025Z,17.30
2022-11-23T01:22:15.794Z,18.23
2022-11-23T01:24:42.412Z,16.60
2022-11-23T01:27:09.275Z,16.23
2022-11-23T01:29:35.859Z,17.37
2022-11-23T01:32:02.664Z,15.97
2022-11-23T01:34:29.328Z,15.90
2022-11-23T01:36:58.899Z,16.40
2022-11-23T01:39:27.803Z,16.60
2022-11-23T01:41:54.434Z,15.73
2022-11-23T01:44:24.291Z,16.07
2022-11-23T01:46:54.157Z,16.03
2022-11-23T01:49:22.259Z,16.20
2022-11-23T01:51:52.030Z,15.70
2022-11-23T01:54:27.998Z,15.17
2022-11-23T01:57:02.051Z,17.00
2022-11-23T01:59:31.674Z,14.53
2022-11-23T02:01:58.535Z,15.47
2022-11-23T02:04:31.074Z,15.23
2022-11-23T02:06:59.540Z,15.27
2022-11-23T02:09:29.213Z,14.33
2022-11-23T02:11:57.718Z,14.63
2022-11-23T02:14:24.353Z,14.70
2022-11-23T02:16:55.251Z,15.00
2022-11-23T02:19:29.689Z,15.07
2022-11-23T02:21:56.987Z,14.47
2022-11-23T02:24:35.425Z,14.70
2022-11-23T02:27:03.867Z,13.97
2022-11-23T02:29:30.964Z,14.40
2022-11-23T02:32:00.719Z,15.00
2022-11-23T02:34:27.411Z,14.77
2022-11-23T02:36:57.291Z,14.37
2022-11-23T02:39:40.413Z,14.80
2022-11-23T02:42:07.164Z,13.87
2022-11-23T02:44:51.259Z,14.13
2022-11-23T02:47:17.917Z,14.37
2022-11-23T02:49:49.307Z,14.67
2022-11-23T02:52:16.956Z,14.57
2022-11-23T02:54:43.602Z,14.33
2022-11-23T02:57:10.550Z,14.77
2022-11-23T02:59:38.942Z,14.70
2022-11-23T03:02:06.739Z,14.07
2022-11-23T03:04:33.597Z,13.73
2022-11-23T03:07:00.451Z,13.03
2022-11-23T03:09:28.189Z,13.07
2022-11-23T03:11:55.170Z,13.37
2022-11-23T03:14:24.209Z,13.33
2022-11-23T03:16:58.119Z,13.10
2022-11-23T03:19:24.875Z,12.63
2022-11-23T03:21:52.981Z,12.33
2022-11-23T03:24:19.866Z,12.20
2022-11-23T03:26:47.543Z,11.77
2022-11-23T03:29:18.877Z,12.47
2022-11-23T03:31:47.434Z,12.00
2022-11-23T03:34:15.982Z,12.40
2022-11-23T03:36:44.300Z,11.83
2022-11-23T03:39:11.194Z,12.53
2022-11-23T03:42:03.170Z,11.67
2022-11-23T03:44:33.307Z,11.90
2022-11-23T03:46:59.900Z,11.97
2022-11-23T03:49:27.826Z,11.50
2022-11-23T03:51:54.546Z,12.03
2022-11-23T03:54:21.131Z,11.50
2022-11-23T03:56:48.273Z,12.13
2022-11-23T03:59:14.909Z,11.20
2022-11-23T04:01:42.035Z,11.47
2022-11-23T04:04:15.444Z,11.47
2022-11-23T04:06:59.683Z,11.30
2022-11-23T04:09:31.485Z,11.93
2022-11-23T04:12:04.009Z,11.40
2022-11-23T04:14:31.038Z,11.23
2022-11-23T04:16:59.507Z,11.67
2022-11-23T04:19:26.107Z,11.60
2022-11-23T04:21:52.758Z,12.23
2022-11-23T04:24:20.587Z,11.13
2022-11-23T04:26:47.349Z,12.33
2022-11-23T04:29:14.859Z,12.40
2022-11-23T04:31:46.367Z,12.07
2022-11-23T04:34:16.429Z,12.07
2022-11-23T04:36:43.293Z,11.53
2022-11-23T04:39:12.509Z,12.23
2022-11-23T04:41:55.566Z,12.17
2022-11-23T04:44:22.654Z,12.50
2022-11-23T04:46:53.652Z,11.50
2022-11-23T04:49:21.364Z,11.23
2022-11-23T04:51:48.072Z,11.20
2022-11-23T04:54:17.764Z,11.77
2022-11-23T04:56:50.100Z,12.90
2022-11-23T04:59:17.487Z,11.77
2022-11-23T05:01:45.342Z,13.83
2022-11-23T05:04:35.195Z,11.20
2022-11-23T05:07:02.650Z,11.53
2022-11-23T05:09:30.836Z,11.37
2022-11-23T05:12:03.973Z,10.90
2022-11-23T05:14:31.719Z,11.63
2022-11-23T05:16:58.459Z,11.33
2022-11-23T05:19:26.233Z,11.50
2022-11-23T05:21:53.611Z,10.53
2022-11-23T05:24:20.902Z,11.53
2022-11-23T05:27:00.015Z,10.83
2022-11-23T05:29:27.866Z,10.50
2022-11-23T05:31:54.675Z,10.73
2022-11-23T05:34:21.665Z,12.03
2022-11-23T05:36:49.200Z,11.30
2022-11-23T05:39:16.805Z,11.77
2022-11-23T05:41:44.388Z,10.23
2022-11-23T05:44:49.676Z,11.27
2022-11-23T05:47:21.898Z,10.50
2022-11-23T05:49:49.477Z,11.07
2022-11-23T05:52:19.139Z,11.33
2022-11-23T05:54:47.178Z,10.60
2022-11-23T05:57:15.804Z,11.47
2022-11-23T05:59:44.476Z,10.27
2022-11-23T06:02:18.729Z,10.23
2022-11-23T06:04:47.737Z,9.93
2022-11-23T06:07:18.310Z,9.70
2022-11-23T06:10:00.672Z,9.93
2022-11-23T06:12:28.778Z,9.93
2022-11-23T06:14:55.663Z,9.70
2022-11-23T06:17:24.927Z,9.07
2022-11-23T06:19:54.406Z,10.37
2022-11-23T06:22:20.979Z,9.83
2022-11-23T06:24:55.675Z,9.50
2022-11-23T06:27:51.278Z,9.83
2022-11-23T06:30:23.878Z,10.40
2022-11-23T06:32:50.570Z,9.90
2022-11-23T06:35:18.962Z,9.73
2022-11-23T06:37:48.890Z,9.67
2022-11-23T06:40:16.971Z,9.30
2022-11-23T06:42:44.044Z,10.20
2022-11-23T06:45:19.343Z,9.30
2022-11-23T06:47:53.814Z,10.03
2022-11-23T06:50:20.576Z,9.70
2022-11-23T06:52:48.677Z,9.70
2022-11-23T06:55:17.172Z,9.43
2022-11-23T06:57:53.871Z,9.90
2022-11-23T07:00:20.694Z,9.40
2022-11-23T07:02:55.218Z,9.00
2022-11-23T07:05:24.662Z,8.87
2022-11-23T07:07:51.395Z,9.20
2022-11-23T07:10:25.673Z,9.17
2022-11-23T07:13:03.722Z,8.70
2022-11-23T07:15:30.488Z,8.37
2022-11-23T07:17:57.479Z,8.40
2022-11-23T07:20:25.245Z,9.57
2022-11-23T07:23:10.335Z,8.37
2022-11-23T07:25:39.410Z,8.33
2022-11-23T07:28:07.876Z,8.80
2022-11-23T07:30:36.073Z,9.60
2022-11-23T07:33:06.615Z,8.57
2022-11-23T07:35:36.013Z,8.47
2022-11-23T07:38:03.533Z,8.80
2022-11-23T07:40:30.380Z,8.10
2022-11-23T07:43:02.661Z,8.33
2022-11-23T07:45:30.064Z,9.03
2022-11-23T07:48:03.253Z,8.30
2022-11-23T07:50:30.146Z,7.80
2022-11-23T07:52:57.414Z,8.30
2022-11-23T07:55:24.560Z,8.13
2022-11-23T07:57:55.159Z,8.53
2022-11-23T08:00:22.969Z,8.93
2022-11-23T08:03:19.406Z,8.60
2022-11-23T08:05:36.479Z,8.90
2022-11-23T08:08:03.467Z,8.17
2022-11-23T08:10:31.986Z,7.77
2022-11-23T08:12:59.920Z,7.33
2022-11-23T08:15:28.092Z,8.00
2022-11-23T08:17:59.117Z,7.93
2022-11-23T08:20:27.332Z,7.83
2022-11-23T08:22:57.190Z,7.53
2022-11-23T08:25:25.310Z,7.33
2022-11-23T08:27:59.951Z,7.50
2022-11-23T08:30:28.244Z,7.13
2022-11-23T08:32:54.856Z,7.27
2022-11-23T08:35:21.774Z,7.07
2022-11-23T08:37:48.516Z,7.40
2022-11-23T08:40:16.655Z,7.30
2022-11-23T08:42:47.368Z,7.63
2022-11-23T08:45:14.036Z,7.23
2022-11-23T08:47:40.637Z,7.33
2022-11-23T08:50:07.676Z,7.33
2022-11-23T08:52:34.295Z,6.87
2022-11-23T08:55:01.347Z,6.53
2022-11-23T08:57:28.796Z,7.23
2022-11-23T08:59:55.439Z,6.30
2022-11-23T09:02:22.133Z,6.80
2022-11-23T09:04:49.008Z,6.07
2022-11-23T09:07:15.729Z,6.27
2022-11-23T09:09:42.369Z,6.33
2022-11-23T09:12:09.103Z,6.30
2022-11-23T09:14:35.886Z,6.70
2022-11-23T09:17:03.240Z,7.37
2022-11-23T09:19:29.952Z,6.20
2022-11-23T09:21:57.893Z,5.83
2022-11-23T09:24:25.751Z,5.63
2022-11-23T09:26:52.416Z,6.50
2022-11-23T09:29:19.017Z,6.43
2022-11-23T09:31:45.662Z,6.73
2022-11-23T09:34:15.078Z,6.00
2022-11-23T09:36:41.714Z,5.80
2022-11-23T09:39:08.484Z,5.53
2022-11-23T09:41:55.066Z,6.47
2022-11-23T09:44:25.581Z,6.13
2022-11-23T09:47:21.220Z,5.63
2022-11-23T09:50:03.112Z,5.37
2022-11-23T09:52:30.872Z,5.97
2022-11-23T09:55:03.162Z,6.30
2022-11-23T09:57:33.935Z,6.10
2022-11-23T10:00:05.603Z,6.03
2022-11-23T10:02:39.123Z,5.77
2022-11-23T10:05:07.242Z,5.90
2022-11-23T10:07:50.232Z,5.83
2022-11-23T10:10:36.567Z,5.70
2022-11-23T10:13:15.666Z,5.33
2022-11-23T10:16:22.121Z,5.53
2022-11-23T10:19:22.549Z,5.77
2022-11-23T10:22:03.823Z,5.43
2022-11-23T10:24:38.138Z,6.10
2022-11-23T10:27:13.975Z,6.53
2022-11-23T10:29:42.147Z,5.13
2022-11-23T10:32:35.405Z,5.87
2022-11-23T10:35:35.186Z,5.27
2022-11-23T10:38:18.369Z,5.17
2022-11-23T10:41:08.755Z,5.03
2022-11-23T10:43:45.139Z,4.87
2022-11-23T10:46:37.219Z,5.20
2022-11-23T10:49:19.347Z,5.30
2022-11-23T10:51:49.900Z,4.40
2022-11-23T10:54:28.215Z,4.83
2022-11-23T10:56:56.360Z,4.77
2022-11-23T10:59:37.959Z,4.47
2022-11-23T11:02:18.331Z,4.70
2022-11-23T11:04:46.857Z,4.90
2022-11-23T11:07:30.672Z,4.80
2022-11-23T11:10:00.036Z,4.50
2022-11-23T11:12:30.310Z,4.90
2022-11-23T11:15:10.940Z,5.10
2022-11-23T11:17:39.618Z,4.80
2022-11-23T11:20:45.661Z,5.43
2022-11-23T11:23:19.942Z,4.80
2022-11-23T11:25:48.406Z,5.17
2022-11-23T11:28:25.219Z,4.87
2022-11-23T11:31:13.202Z,4.57
2022-11-23T11:33:53.614Z,4.83
2022-11-23T11:36:21.875Z,4.73
2022-11-23T11:39:17.272Z,4.80
2022-11-23T11:41:42.495Z,4.70
2022-11-23T11:44:20.413Z,5.20
2022-11-23T11:46:53.967Z,5.50
2022-11-23T11:49:31.380Z,4.97
2022-11-23T11:52:07.065Z,8.80
2022-11-23T11:55:07.011Z,5.00
2022-11-23T11:57:44.092Z,4.87
2022-11-23T12:00:15.341Z,5.30
2022-11-23T12:02:52.793Z,5.63
2022-11-23T12:05:30.359Z,5.43
2022-11-23T12:08:30.614Z,5.40
2022-11-23T12:11:00.166Z,5.20
2022-11-23T12:13:33.511Z,5.03
2022-11-23T12:16:28.424Z,4.30
2022-11-23T12:19:07.021Z,4.30
2022-11-23T12:22:06.012Z,5.10
2022-11-23T12:24:38.439Z,4.43
2022-11-23T12:27:10.225Z,4.40
2022-11-23T12:30:25.770Z,3.90
2022-11-23T12:33:13.229Z,3.80
2022-11-23T12:35:58.869Z,4.53
2022-11-23T12:38:38.131Z,4.63
2022-11-23T12:41:37.363Z,4.00
2022-11-23T12:44:22.098Z,3.53
2022-11-23T12:46:57.718Z,3.90
2022-11-23T12:49:51.893Z,3.87
2022-11-23T12:52:34.541Z,3.90
2022-11-23T12:55:19.663Z,3.43
2022-11-23T12:57:58.613Z,3.10
2022-11-23T13:00:31.939Z,4.00
2022-11-23T13:02:58.563Z,3.60
2022-11-23T13:06:02.758Z,4.00
2022-11-23T13:09:00.686Z,3.80
2022-11-23T13:12:03.536Z,3.40
2022-11-23T13:14:50.368Z,3.40
2022-11-23T13:18:11.136Z,4.17
2022-11-23T13:21:02.790Z,3.60
2022-11-23T13:23:38.192Z,3.43
2022-11-23T13:26:16.962Z,3.87
2022-11-23T13:28:47.568Z,3.40
2022-11-23T13:31:23.761Z,3.57
2022-11-23T13:33:56.583Z,3.50
2022-11-23T13:36:49.333Z,3.30
2022-11-23T13:39:43.805Z,3.10
2022-11-23T13:42:11.146Z,3.73
2022-11-23T13:44:37.891Z,3.53
2022-11-23T13:47:17.827Z,3.67
2022-11-23T13:49:47.031Z,3.70
2022-11-23T13:52:22.801Z,4.00
2022-11-23T13:55:13.270Z,3.50
2022-11-23T13:57:45.185Z,3.30
2022-11-23T14:00:49.682Z,3.30
2022-11-23T14:03:51.437Z,3.13
2022-11-23T14:06:45.522Z,3.60
2022-11-23T14:09:51.117Z,3.50
2022-11-23T14:12:23.699Z,2.90
2022-11-23T14:15:00.684Z,2.80
2022-11-23T14:17:48.775Z,3.00
2022-11-23T14:20:36.489Z,3.10
2022-11-23T14:23:11.176Z,3.20
2022-11-23T14:25:50.685Z,3.13
2022-11-23T14:28:48.095Z,3.70
2022-11-23T14:31:41.248Z,2.80
2022-11-23T14:34:25.534Z,3.20
2022-11-23T14:37:10.886Z,3.60
2022-11-23T14:40:03.372Z,3.37
2022-11-23T14:42:31.837Z,3.53
2022-11-23T14:45:04.592Z,3.23
2022-11-23T14:47:32.359Z,3.93
2022-11-23T14:49:59.283Z,4.50
2022-11-23T14:52:32.240Z,3.87
2022-11-23T14:55:02.581Z,4.77
2022-11-23T14:57:40.861Z,4.10
2022-11-23T15:00:36.212Z,5.03
2022-11-23T15:03:48.885Z,4.50
2022-11-23T15:06:16.551Z,4.77
2022-11-23T15:09:05.578Z,4.80
2022-11-23T15:11:36.270Z,4.87
2022-11-23T15:14:02.896Z,4.63
2022-11-23T15:16:38.293Z,5.17
2022-11-23T15:19:28.339Z,4.70
2022-11-23T15:21:58.033Z,4.50
2022-11-23T15:24:26.753Z,4.13
2022-11-23T15:26:56.990Z,4.77
2022-11-23T15:29:34.079Z,4.73
2022-11-23T15:34:49.799Z,5.00
2022-11-23T15:37:17.513Z,5.17
2022-11-23T15:39:44.488Z,5.10
2022-11-23T15:42:16.862Z,5.23
2022-11-23T15:44:48.896Z,4.90
2022-11-23T15:47:27.144Z,4.63
2022-11-23T15:50:02.772Z,4.67
2022-11-23T15:52:35.556Z,7.67
2022-11-23T15:57:56.601Z,5.10
2022-11-23T16:00:25.657Z,12.00
2022-11-23T16:03:14.010Z,6.23
2022-11-23T16:04:12.686Z,6.60
2022-11-23T16:05:40.638Z,4.57
2022-11-23T16:08:24.472Z,5.57
2022-11-23T16:10:55.393Z,4.80
2022-11-23T16:13:37.050Z,5.10
2022-11-23T16:16:14.138Z,5.00
2022-11-23T16:18:46.701Z,4.20
2022-11-23T16:21:16.874Z,5.60
2022-11-23T16:23:55.931Z,7.10
2022-11-23T16:26:33.311Z,5.17
2022-11-23T16:29:01.249Z,4.87
2022-11-23T16:31:39.994Z,4.83
2022-11-23T16:34:15.611Z,4.67
2022-11-23T16:36:42.226Z,5.90
2022-11-23T16:39:08.791Z,4.97
2022-11-23T16:41:35.403Z,6.27
2022-11-23T16:44:02.022Z,7.77
2022-11-23T16:46:28.769Z,5.60
2022-11-23T16:48:57.315Z,5.03
2022-11-23T16:51:23.990Z,5.07
2022-11-23T16:56:38.144Z,5.67
2022-11-23T16:59:05.064Z,8.57
2022-11-23T17:01:32.620Z,4.83
2022-11-23T17:03:59.862Z,7.93
2022-11-23T17:06:26.647Z,10.03
2022-11-23T17:09:00.505Z,6.50
2022-11-23T17:11:32.995Z,5.93
2022-11-23T17:13:59.911Z,5.50
2022-11-23T17:16:26.969Z,6.13
2022-11-23T17:18:53.822Z,5.73
2022-11-23T17:21:20.487Z,5.33
2022-11-23T17:23:47.305Z,5.33
2022-11-23T17:26:36.151Z,5.40
2022-11-23T17:29:06.392Z,5.87
2022-11-23T17:31:33.384Z,5.67
2022-11-23T17:34:00.088Z,5.53
2022-11-23T17:36:26.845Z,5.77
2022-11-23T17:38:54.373Z,5.90
2022-11-23T17:41:21.005Z,5.80
2022-11-23T17:43:47.764Z,5.37
2022-11-23T17:46:18.791Z,6.30
2022-11-23T17:48:46.552Z,5.27
2022-11-23T17:51:13.655Z,5.27
2022-11-23T17:53:41.135Z,5.17
2022-11-23T17:56:17.915Z,6.60
2022-11-23T17:58:44.980Z,4.97
2022-11-23T18:01:14.008Z,5.20
2022-11-23T18:03:41.803Z,5.20
2022-11-23T18:06:20.377Z,4.43
2022-11-23T18:08:48.546Z,4.87
2022-11-23T18:11:15.550Z,4.60
2022-11-23T18:13:43.046Z,4.10
2022-11-23T18:16:13.116Z,4.43
2022-11-23T18:18:40.123Z,4.30
2022-11-23T18:21:07.203Z,5.00
2022-11-23T18:23:34.208Z,5.80
2022-11-23T18:26:12.609Z,6.67
2022-11-23T18:28:39.319Z,7.37
2022-11-23T18:31:06.371Z,6.87
2022-11-23T18:33:33.043Z,6.57
2022-11-23T18:36:05.139Z,5.53
2022-11-23T18:38:33.548Z,5.60
2022-11-23T18:41:00.464Z,5.77
2022-11-23T18:43:27.312Z,5.00
2022-11-23T18:45:54.067Z,5.20
2022-11-23T18:48:20.721Z,5.17
2022-11-23T18:50:47.391Z,5.30
2022-11-23T18:53:14.138Z,5.60
2022-11-23T18:55:40.881Z,5.33
2022-11-23T18:58:07.516Z,4.90
2022-11-23T19:00:34.181Z,5.50
2022-11-23T19:03:02.286Z,5.63
2022-11-23T19:05:35.334Z,5.47
2022-11-23T19:08:06.917Z,5.00
2022-11-23T19:10:38.247Z,4.83
2022-11-23T19:13:06.121Z,5.10
2022-11-23T19:15:33.481Z,4.97
2022-11-23T19:18:00.708Z,5.43
2022-11-23T19:20:29.076Z,5.03
2022-11-23T19:22:56.077Z,4.37
2022-11-23T19:25:23.018Z,4.80
2022-11-23T19:27:51.217Z,5.20
2022-11-23T19:30:18.186Z,4.40
2022-11-23T19:32:44.980Z,4.40
2022-11-23T19:35:11.600Z,4.87
2022-11-23T19:37:38.646Z,4.73
2022-11-23T19:40:05.886Z,5.40
2022-11-23T19:42:35.554Z,5.17
2022-11-23T19:45:02.867Z,4.77
2022-11-23T19:47:31.346Z,4.63
2022-11-23T19:49:58.970Z,4.77
2022-11-23T19:52:41.985Z,5.07
2022-11-23T19:55:14.964Z,4.90
2022-11-23T19:57:41.583Z,4.47
2022-11-23T20:00:09.380Z,4.73
2022-11-23T20:02:38.737Z,4.83
2022-11-23T20:05:06.594Z,4.97
2022-11-23T20:07:33.335Z,4.97
2022-11-23T20:09:59.977Z,5.73
2022-11-23T20:12:26.604Z,5.80
2022-11-23T20:14:53.226Z,4.60
2022-11-23T20:17:19.819Z,4.97
2022-11-23T20:19:46.378Z,4.63
2022-11-23T20:22:12.980Z,5.10
2022-11-23T20:24:39.586Z,4.57
2022-11-23T20:27:06.201Z,4.53
2022-11-23T20:29:33.048Z,4.90
2022-11-23T20:31:59.786Z,4.57
2022-11-23T20:34:26.633Z,6.83
2022-11-23T20:36:53.272Z,8.53
2022-11-23T20:39:19.891Z,8.73
2022-11-23T20:41:49.240Z,4.83
2022-11-23T20:44:15.869Z,5.07
2022-11-23T20:47:01.250Z,5.53
2022-11-23T20:49:30.149Z,11.27
2022-11-23T20:51:57.390Z,4.77
2022-11-23T20:54:23.999Z,4.87
2022-11-23T20:56:50.625Z,5.73
2022-11-23T20:59:17.321Z,15.63
2022-11-23T21:01:44.057Z,4.33
2022-11-23T21:04:10.925Z,5.00
2022-11-23T21:06:39.924Z,10.80
2022-11-23T21:09:07.763Z,6.50
2022-11-23T21:11:52.955Z,5.07
2022-11-23T21:14:21.561Z,4.83
2022-11-23T21:16:56.729Z,5.93
2022-11-23T21:19:34.738Z,4.90
2022-11-23T21:22:06.691Z,4.93
2022-11-23T21:24:35.327Z,4.60
2022-11-23T21:27:03.944Z,4.83
2022-11-23T21:29:31.181Z,4.67
2022-11-23T21:31:57.772Z,4.60
2022-11-23T21:34:26.021Z,4.40
2022-11-23T21:36:53.743Z,4.87
2022-11-23T21:39:21.111Z,4.30
2022-11-23T21:41:51.163Z,4.70
2022-11-23T21:44:18.232Z,4.57
2022-11-23T21:46:45.333Z,4.40
2022-11-23T21:49:12.876Z,4.67
2022-11-23T21:51:39.696Z,4.20
2022-11-23T21:54:10.091Z,4.90
2022-11-23T21:56:36.690Z,4.37
2022-11-23T21:59:03.311Z,4.87
2022-11-23T22:01:32.742Z,4.37
2022-11-23T22:04:17.300Z,4.63
2022-11-23T22:06:45.102Z,4.30
2022-11-23T22:09:12.567Z,5.07
2022-11-23T22:11:41.558Z,4.50
2022-11-23T22:14:13.685Z,4.53
2022-11-23T22:16:45.543Z,4.20
2022-11-23T22:19:13.651Z,4.37
2022-11-23T22:21:42.114Z,4.73
2022-11-23T22:24:19.349Z,4.87
2022-11-23T22:26:46.517Z,4.53
2022-11-23T22:29:13.750Z,4.30
2022-11-23T22:31:40.812Z,4.00
2022-11-23T22:34:14.065Z,4.70
2022-11-23T22:36:41.083Z,4.57
2022-11-23T22:39:08.125Z,4.53
2022-11-23T22:41:38.837Z,4.27
2022-11-23T22:44:08.423Z,4.00
2022-11-23T22:46:37.480Z,4.30
2022-11-23T22:49:04.418Z,4.40
2022-11-23T22:51:31.047Z,4.77
2022-11-23T22:53:59.491Z,4.60
2022-11-23T22:56:27.441Z,4.43
2022-11-23T22:58:54.221Z,4.00
2022-11-23T23:01:26.739Z,4.40
2022-11-23T23:03:55.486Z,4.30
2022-11-23T23:06:24.727Z,4.73
2022-11-23T23:08:56.762Z,4.47
2022-11-23T23:11:24.699Z,4.53
2022-11-23T23:13:51.764Z,4.00
2022-11-23T23:16:18.705Z,4.27
2022-11-23T23:18:45.599Z,4.47
2022-11-23T23:21:17.219Z,4.40
2022-11-23T23:23:45.983Z,4.43
2022-11-23T23:26:14.466Z,4.73
2022-11-23T23:28:41.308Z,4.93
2022-11-23T23:31:10.800Z,4.50
2022-11-23T23:33:37.657Z,3.97
2022-11-23T23:36:15.644Z,4.50
2022-11-23T23:38:42.884Z,4.40
2022-11-23T23:41:10.977Z,4.10
2022-11-23T23:43:37.877Z,4.07
2022-11-23T23:46:07.401Z,4.40
2022-11-23T23:48:36.151Z,4.57
2022-11-23T23:51:07.511Z,3.97
2022-11-23T23:53:35.161Z,4.20
2022-11-23T23:56:04.689Z,4.53
2022-11-23T23:58:31.652Z,3.97
